createdAt,value
2023-01-09T00:00:12.657Z,26.65
2023-01-09T00:02:41.996Z,26.85
2023-01-09T00:05:13.312Z,28.17
2023-01-09T00:07:42.933Z,28.73
2023-01-09T00:10:14.023Z,27.60
2023-01-09T00:12:43.700Z,26.42
2023-01-09T00:15:13.655Z,24.67
2023-01-09T00:17:43.014Z,26.15
2023-01-09T00:20:13.046Z,26.00
2023-01-09T00:22:42.482Z,26.73
2023-01-09T00:25:12.117Z,27.67
2023-01-09T00:27:41.419Z,28.27
2023-01-09T00:30:11.962Z,27.77
2023-01-09T00:32:42.040Z,28.30
2023-01-09T00:35:17.880Z,27.33
2023-01-09T00:37:47.404Z,28.20
2023-01-09T00:40:18.868Z,30.08
2023-01-09T00:42:57.914Z,32.42
2023-01-09T00:45:33.282Z,33.75
2023-01-09T00:48:14.051Z,33.42
2023-01-09T00:50:44.030Z,32.55
2023-01-09T00:53:20.107Z,29.95
2023-01-09T00:55:49.307Z,29.75
2023-01-09T00:58:19.540Z,31.08
2023-01-09T01:00:49.488Z,28.85
2023-01-09T01:03:18.662Z,29.63
2023-01-09T01:06:05.973Z,28.15
2023-01-09T01:08:35.084Z,28.42
2023-01-09T01:11:11.300Z,29.60
2023-01-09T01:13:42.616Z,29.83
2023-01-09T01:16:14.678Z,31.33
2023-01-09T01:18:44.015Z,32.95
2023-01-09T01:21:16.528Z,28.75
2023-01-09T01:23:46.205Z,30.20
2023-01-09T01:26:18.282Z,29.00
2023-01-09T01:28:49.627Z,31.92
2023-01-09T01:31:20.980Z,29.30
2023-01-09T01:33:52.754Z,28.90
2023-01-09T01:36:21.843Z,28.77
2023-01-09T01:38:51.089Z,26.55
2023-01-09T01:41:30.316Z,26.88
2023-01-09T01:44:04.353Z,25.63
2023-01-09T01:46:35.746Z,26.60
2023-01-09T01:49:21.344Z,25.92
2023-01-09T01:51:54.821Z,25.30
2023-01-09T01:54:36.387Z,24.25
2023-01-09T01:57:09.432Z,24.65
2023-01-09T01:59:54.608Z,23.13
2023-01-09T02:02:32.915Z,23.52
2023-01-09T02:05:07.585Z,22.52
2023-01-09T02:07:39.143Z,21.25
2023-01-09T02:10:09.444Z,19.50
2023-01-09T02:12:39.688Z,21.50
2023-01-09T02:15:14.751Z,21.63
2023-01-09T02:18:30.997Z,20.73
2023-01-09T02:21:26.404Z,21.50
2023-01-09T02:24:40.737Z,18.65
2023-01-09T02:27:21.823Z,20.77
2023-01-09T02:30:27.955Z,19.33
2023-01-09T02:33:20.887Z,19.35
2023-01-09T02:36:08.175Z,18.95
2023-01-09T02:39:09.158Z,18.50
2023-01-09T02:41:44.815Z,22.10
2023-01-09T02:44:28.573Z,21.20
2023-01-09T02:47:32.370Z,20.95
2023-01-09T02:50:06.199Z,20.15
2023-01-09T02:53:05.547Z,20.08
2023-01-09T02:55:54.303Z,18.13
2023-01-09T02:59:00.771Z,18.42
2023-01-09T03:02:02.237Z,15.85
2023-01-09T03:04:44.842Z,14.80
2023-01-09T03:07:37.927Z,16.45
2023-01-09T03:11:08.750Z,15.68
2023-01-09T03:13:52.447Z,15.85
2023-01-09T03:16:30.116Z,17.25
2023-01-09T03:19:01.768Z,17.13
2023-01-09T03:21:33.210Z,15.13
2023-01-09T03:24:04.091Z,15.80
2023-01-09T03:26:34.102Z,15.30
2023-01-09T03:29:03.723Z,15.40
2023-01-09T03:31:33.017Z,16.75
2023-01-09T03:34:02.283Z,15.23
2023-01-09T03:36:31.508Z,16.85
2023-01-09T03:39:00.710Z,15.70
2023-01-09T03:41:29.872Z,16.58
2023-01-09T03:43:59.038Z,17.15
2023-01-09T03:46:28.272Z,15.93
2023-01-09T03:48:57.552Z,15.73
2023-01-09T03:51:26.752Z,16.02
2023-01-09T03:53:56.046Z,15.95
2023-01-09T03:56:26.521Z,15.32
2023-01-09T03:58:57.028Z,15.32
2023-01-09T04:01:26.349Z,16.02
2023-01-09T04:03:55.600Z,14.32
2023-01-09T04:06:25.022Z,14.65
2023-01-09T04:08:54.175Z,14.85
2023-01-09T04:11:23.511Z,14.15
2023-01-09T04:13:52.748Z,13.23
2023-01-09T04:16:22.087Z,13.32
2023-01-09T04:18:51.304Z,14.27
2023-01-09T04:21:22.053Z,13.98
2023-01-09T04:23:51.352Z,12.60
2023-01-09T04:26:20.619Z,12.40
2023-01-09T04:28:50.082Z,12.02
2023-01-09T04:31:19.267Z,14.07
2023-01-09T04:33:48.518Z,11.27
2023-01-09T04:36:17.708Z,10.98
2023-01-09T04:38:46.868Z,11.65
2023-01-09T04:41:36.122Z,12.85
2023-01-09T04:44:05.578Z,12.40
2023-01-09T04:46:34.807Z,12.32
2023-01-09T04:49:04.089Z,11.57
2023-01-09T04:51:33.365Z,10.45
2023-01-09T04:54:02.611Z,8.80
2023-01-09T04:56:31.966Z,7.55
2023-01-09T04:59:01.851Z,8.02
2023-01-09T05:01:31.159Z,8.18
2023-01-09T05:04:00.519Z,8.65
2023-01-09T05:06:30.022Z,9.23
2023-01-09T05:08:59.592Z,9.02
2023-01-09T05:11:29.536Z,8.40
2023-01-09T05:13:58.668Z,8.48
2023-01-09T05:16:27.750Z,7.97
2023-01-09T05:18:58.185Z,8.52
2023-01-09T05:21:27.652Z,7.63
2023-01-09T05:23:56.776Z,6.85
2023-01-09T05:26:26.240Z,7.95
2023-01-09T05:28:59.697Z,7.28
2023-01-09T05:31:29.633Z,8.13
2023-01-09T05:34:00.275Z,8.55
2023-01-09T05:36:29.394Z,8.95
2023-01-09T05:39:03.545Z,8.68
2023-01-09T05:41:32.620Z,7.30
2023-01-09T05:44:01.803Z,6.97
2023-01-09T05:46:30.958Z,6.53
2023-01-09T05:49:00.381Z,7.93
2023-01-09T05:51:29.505Z,6.75
2023-01-09T05:53:59.078Z,6.93
2023-01-09T05:56:28.288Z,6.18
2023-01-09T05:58:58.755Z,6.20
2023-01-09T06:01:28.033Z,6.60
2023-01-09T06:03:57.291Z,5.63
2023-01-09T06:06:27.024Z,6.30
2023-01-09T06:08:56.247Z,6.07
2023-01-09T06:11:25.414Z,6.68
2023-01-09T06:13:54.608Z,6.13
2023-01-09T06:16:23.825Z,6.00
2023-01-09T06:18:53.056Z,5.85
2023-01-09T06:21:22.265Z,5.90
2023-01-09T06:23:51.423Z,5.80
2023-01-09T06:26:20.620Z,6.28
2023-01-09T06:28:49.810Z,6.03
2023-01-09T06:31:19.059Z,5.97
2023-01-09T06:33:48.319Z,4.95
2023-01-09T06:36:17.799Z,5.68
2023-01-09T06:38:46.969Z,5.93
2023-01-09T06:41:16.170Z,6.93
2023-01-09T06:43:45.493Z,5.47
2023-01-09T06:46:14.749Z,6.95
2023-01-09T06:48:43.986Z,5.82
2023-01-09T06:51:13.167Z,3.78
2023-01-09T06:53:42.380Z,4.30
2023-01-09T06:56:11.575Z,3.80
2023-01-09T06:58:40.844Z,4.22
2023-01-09T07:01:10.337Z,4.43
2023-01-09T07:03:39.650Z,4.65
2023-01-09T07:06:09.095Z,4.18
2023-01-09T07:08:38.348Z,4.72
2023-01-09T07:11:07.655Z,5.07
2023-01-09T07:13:39.284Z,4.22
2023-01-09T07:16:09.204Z,4.75
2023-01-09T07:18:38.451Z,3.55
2023-01-09T07:21:10.782Z,3.97
2023-01-09T07:23:39.993Z,4.07
2023-01-09T07:26:09.171Z,3.40
2023-01-09T07:28:38.478Z,3.47
2023-01-09T07:31:08.589Z,4.05
2023-01-09T07:33:38.088Z,3.67
2023-01-09T07:36:07.804Z,3.65
2023-01-09T07:38:37.592Z,3.40
2023-01-09T07:41:07.185Z,3.67
2023-01-09T07:43:37.127Z,3.80
2023-01-09T07:46:07.508Z,3.20
2023-01-09T07:48:36.718Z,3.47
2023-01-09T07:51:07.178Z,4.00
2023-01-09T07:53:36.365Z,3.75
2023-01-09T07:56:05.816Z,3.88
2023-01-09T07:58:35.045Z,5.05
2023-01-09T08:01:05.572Z,4.88
2023-01-09T08:03:35.269Z,4.32
2023-01-09T08:06:08.168Z,4.40
2023-01-09T08:08:37.433Z,5.40
2023-01-09T08:11:06.675Z,4.15
2023-01-09T08:13:35.871Z,4.30
2023-01-09T08:16:05.143Z,5.47
2023-01-09T08:18:34.364Z,5.38
2023-01-09T08:21:03.455Z,6.00
2023-01-09T08:23:32.522Z,5.30
2023-01-09T08:26:01.707Z,5.38
2023-01-09T08:28:30.860Z,6.45
2023-01-09T08:31:01.101Z,5.80
2023-01-09T08:33:33.915Z,5.32
2023-01-09T08:36:03.871Z,5.80
2023-01-09T08:38:33.744Z,5.43
2023-01-09T08:41:23.207Z,6.00
2023-01-09T08:44:11.110Z,21.15
2023-01-09T08:46:58.813Z,6.10
2023-01-09T08:49:28.541Z,5.78
2023-01-09T08:51:58.320Z,6.80
2023-01-09T08:54:28.108Z,5.82
2023-01-09T08:56:57.980Z,5.05
2023-01-09T08:59:28.057Z,5.97
2023-01-09T09:01:58.781Z,6.32
2023-01-09T09:04:30.122Z,5.90
2023-01-09T09:06:59.372Z,6.03
2023-01-09T09:09:28.552Z,5.70
2023-01-09T09:11:57.778Z,6.40
2023-01-09T09:14:45.344Z,6.35
2023-01-09T09:17:14.629Z,6.43
2023-01-09T09:19:43.787Z,6.97
2023-01-09T09:22:12.941Z,6.30
2023-01-09T09:24:42.206Z,5.57
2023-01-09T09:27:11.376Z,5.82
2023-01-09T09:29:40.534Z,5.20
2023-01-09T09:32:09.759Z,6.15
2023-01-09T09:34:39.168Z,5.78
2023-01-09T09:37:08.954Z,6.95
2023-01-09T09:39:38.236Z,9.38
2023-01-09T09:42:36.015Z,7.78
2023-01-09T09:45:08.441Z,7.32
2023-01-09T09:47:57.052Z,7.28
2023-01-09T09:50:47.752Z,7.47
2023-01-09T09:53:36.905Z,6.13
2023-01-09T09:56:07.444Z,6.38
2023-01-09T09:58:47.581Z,7.82
2023-01-09T10:01:43.002Z,7.55
2023-01-09T10:04:20.027Z,7.20
2023-01-09T10:07:07.092Z,7.60
2023-01-09T10:10:01.586Z,7.40
2023-01-09T10:12:58.439Z,7.50
2023-01-09T10:16:00.030Z,7.60
2023-01-09T10:18:45.361Z,7.30
2023-01-09T10:22:07.853Z,7.00
2023-01-09T10:25:12.177Z,7.50
2023-01-09T10:28:31.015Z,8.18
2023-01-09T10:31:30.416Z,7.00
2023-01-09T10:34:11.873Z,9.38
2023-01-09T10:37:20.165Z,8.18
2023-01-09T10:40:22.003Z,8.05
2023-01-09T10:43:03.346Z,7.20
2023-01-09T10:45:56.627Z,6.57
2023-01-09T10:48:37.010Z,8.38
2023-01-09T10:51:25.321Z,9.25
2023-01-09T10:53:57.627Z,9.20
2023-01-09T10:56:38.335Z,10.38
2023-01-09T10:59:11.102Z,8.77
2023-01-09T11:01:44.312Z,7.53
2023-01-09T11:04:38.581Z,6.93
2023-01-09T11:07:33.494Z,7.32
2023-01-09T11:10:12.722Z,7.05
2023-01-09T11:12:42.758Z,6.63
2023-01-09T11:15:30.057Z,7.05
2023-01-09T11:18:23.128Z,8.48
2023-01-09T11:20:53.762Z,8.65
2023-01-09T11:23:34.979Z,8.50
2023-01-09T11:26:05.034Z,8.35
2023-01-09T11:28:34.294Z,8.80
2023-01-09T11:31:04.645Z,8.30
2023-01-09T11:33:49.201Z,7.65
2023-01-09T11:36:20.080Z,6.20
2023-01-09T11:38:56.592Z,6.03
2023-01-09T11:41:31.676Z,6.32
2023-01-09T11:44:04.109Z,6.47
2023-01-09T11:46:45.658Z,6.80
2023-01-09T11:49:25.417Z,8.32
2023-01-09T11:52:23.448Z,8.02
2023-01-09T11:55:06.503Z,7.82
2023-01-09T11:57:35.929Z,8.18
2023-01-09T12:00:27.677Z,8.40
2023-01-09T12:03:47.155Z,9.73
2023-01-09T12:06:49.407Z,8.10
2023-01-09T12:10:01.531Z,9.00
2023-01-09T12:13:00.527Z,9.23
2023-01-09T12:15:41.793Z,10.80
2023-01-09T12:18:33.127Z,10.95
2023-01-09T12:21:30.265Z,9.20
2023-01-09T12:24:23.401Z,7.85
2023-01-09T12:27:01.167Z,7.45
2023-01-09T12:29:38.933Z,7.32
2023-01-09T12:32:33.725Z,6.65
2023-01-09T12:35:42.483Z,6.15
2023-01-09T12:38:41.553Z,5.97
2023-01-09T12:41:23.831Z,6.13
2023-01-09T12:44:34.623Z,5.95
2023-01-09T12:47:34.680Z,6.15
2023-01-09T12:50:20.112Z,5.78
2023-01-09T12:53:23.113Z,5.60
2023-01-09T12:56:20.388Z,5.40
2023-01-09T12:59:01.871Z,5.90
2023-01-09T13:01:47.388Z,5.95
2023-01-09T13:04:35.809Z,6.38
2023-01-09T13:07:21.624Z,6.78
2023-01-09T13:10:34.566Z,5.32
2023-01-09T13:13:19.816Z,5.13
2023-01-09T13:16:12.006Z,4.90
2023-01-09T13:18:53.414Z,5.75
2023-01-09T13:21:23.284Z,6.43
2023-01-09T13:24:22.203Z,5.88
2023-01-09T13:27:21.215Z,7.03
2023-01-09T13:30:03.157Z,6.03
2023-01-09T13:32:59.650Z,6.88
2023-01-09T13:35:29.153Z,6.75
2023-01-09T13:37:58.720Z,7.05
2023-01-09T13:40:39.333Z,6.60
2023-01-09T13:43:15.710Z,6.68
2023-01-09T13:45:58.819Z,6.70
2023-01-09T13:48:40.692Z,6.97
2023-01-09T13:51:48.347Z,6.40
2023-01-09T13:55:01.912Z,6.75
2023-01-09T13:57:46.676Z,6.57
2023-01-09T14:00:22.453Z,7.05
2023-01-09T14:03:18.313Z,8.65
2023-01-09T14:05:52.625Z,7.93
2023-01-09T14:08:27.256Z,8.68
2023-01-09T14:11:04.399Z,7.93
2023-01-09T14:13:46.119Z,8.50
2023-01-09T14:16:24.751Z,7.35
2023-01-09T14:19:02.536Z,7.45
2023-01-09T14:21:58.276Z,6.65
2023-01-09T14:24:34.964Z,6.60
2023-01-09T14:27:04.385Z,6.47
2023-01-09T14:29:33.518Z,7.45
2023-01-09T14:32:24.227Z,6.22
2023-01-09T14:35:20.579Z,5.88
2023-01-09T14:38:06.459Z,5.60
2023-01-09T14:40:47.284Z,6.43
2023-01-09T14:44:06.142Z,6.35
2023-01-09T14:46:39.989Z,5.50
2023-01-09T14:49:26.509Z,6.45
2023-01-09T14:51:59.780Z,6.07
2023-01-09T14:54:35.423Z,5.22
2023-01-09T14:57:05.037Z,5.32
2023-01-09T14:59:36.440Z,5.85
2023-01-09T15:02:05.772Z,6.57
2023-01-09T15:04:42.431Z,6.50
2023-01-09T15:07:26.897Z,7.15
2023-01-09T15:10:06.782Z,6.75
2023-01-09T15:12:36.865Z,7.00
2023-01-09T15:15:09.560Z,6.47
2023-01-09T15:17:40.340Z,7.50
2023-01-09T15:20:21.889Z,6.50
2023-01-09T15:22:54.597Z,6.75
2023-01-09T15:25:40.393Z,6.55
2023-01-09T15:28:29.968Z,6.70
2023-01-09T15:31:15.959Z,9.10
2023-01-09T15:33:48.696Z,6.97
2023-01-09T15:36:31.854Z,6.95
2023-01-09T15:39:01.930Z,6.15
2023-01-09T15:41:51.677Z,6.28
2023-01-09T15:44:29.420Z,6.18
2023-01-09T15:47:03.305Z,6.32
2023-01-09T15:49:34.703Z,5.93
2023-01-09T15:52:05.602Z,5.95
2023-01-09T15:54:36.240Z,6.65
2023-01-09T15:57:26.892Z,6.13
2023-01-09T15:59:59.308Z,6.80
2023-01-09T16:02:47.243Z,6.55
2023-01-09T16:05:18.877Z,7.03
2023-01-09T16:07:50.475Z,6.70
2023-01-09T16:11:01.954Z,6.53
2023-01-09T16:13:36.255Z,7.18
2023-01-09T16:16:06.115Z,6.38
2023-01-09T16:18:50.733Z,6.22
2023-01-09T16:21:35.155Z,6.15
2023-01-09T16:24:49.548Z,5.85
2023-01-09T16:27:26.980Z,6.13
2023-01-09T16:30:09.740Z,6.55
2023-01-09T16:32:52.346Z,7.00
2023-01-09T16:35:27.104Z,6.57
2023-01-09T16:37:56.489Z,6.70
2023-01-09T16:40:28.196Z,7.03
2023-01-09T16:43:02.581Z,6.78
2023-01-09T16:45:36.507Z,6.57
2023-01-09T16:48:22.631Z,7.22
2023-01-09T16:50:51.891Z,7.68
2023-01-09T16:53:26.657Z,8.20
2023-01-09T16:55:56.425Z,8.85
2023-01-09T16:58:36.392Z,7.68
2023-01-09T17:01:06.538Z,9.45
2023-01-09T17:03:35.695Z,8.82
2023-01-09T17:06:07.240Z,8.88
2023-01-09T17:08:39.593Z,9.07
2023-01-09T17:11:35.906Z,8.52
2023-01-09T17:14:05.265Z,9.13
2023-01-09T17:16:39.824Z,8.88
2023-01-09T17:19:14.902Z,8.38
2023-01-09T17:21:44.059Z,9.88
2023-01-09T17:24:31.457Z,9.35
2023-01-09T17:27:21.566Z,10.70
2023-01-09T17:29:50.847Z,9.15
2023-01-09T17:32:21.332Z,9.55
2023-01-09T17:34:50.472Z,9.90
2023-01-09T17:37:21.002Z,10.25
2023-01-09T17:39:50.177Z,10.27
2023-01-09T17:51:32.576Z,10.07
2023-01-09T17:54:01.767Z,11.25
2023-01-09T17:56:36.158Z,10.80
2023-01-09T17:59:07.260Z,10.45
2023-01-09T18:01:37.704Z,11.15
2023-01-09T18:04:07.026Z,10.40
2023-01-09T18:06:40.087Z,10.45
2023-01-09T18:09:11.883Z,11.30
2023-01-09T18:11:42.837Z,10.13
2023-01-09T18:14:13.859Z,11.00
2023-01-09T18:16:43.308Z,10.50
2023-01-09T18:19:12.915Z,9.57
2023-01-09T18:21:42.083Z,10.70
2023-01-09T18:24:11.458Z,10.80
2023-01-09T18:26:40.683Z,9.82
2023-01-09T18:29:12.319Z,9.43
2023-01-09T18:31:41.642Z,10.30
2023-01-09T18:34:12.081Z,10.55
2023-01-09T18:36:41.426Z,9.75
2023-01-09T18:39:12.855Z,9.32
2023-01-09T18:41:42.076Z,9.57
2023-01-09T18:44:11.553Z,10.32
2023-01-09T18:46:43.087Z,9.95
2023-01-09T18:49:12.424Z,10.68
2023-01-09T18:51:41.958Z,10.90
2023-01-09T18:54:12.700Z,10.32
2023-01-09T18:56:42.305Z,10.55
2023-01-09T18:59:13.319Z,10.57
2023-01-09T19:01:42.524Z,10.98
2023-01-09T19:04:11.792Z,11.40
2023-01-09T19:06:41.029Z,11.30
2023-01-09T19:09:10.246Z,11.93
2023-01-09T19:11:39.455Z,10.98
2023-01-09T19:14:08.705Z,10.77
2023-01-09T19:16:37.949Z,9.93
2023-01-09T19:19:09.496Z,10.00
2023-01-09T19:21:38.775Z,9.60
2023-01-09T19:24:08.418Z,9.40
2023-01-09T19:26:37.676Z,13.55
2023-01-09T19:29:06.847Z,9.77
2023-01-09T19:31:36.283Z,9.77
2023-01-09T19:34:05.501Z,9.88
2023-01-09T19:36:35.076Z,9.73
2023-01-09T19:39:06.235Z,10.73
2023-01-09T19:41:35.409Z,9.95
2023-01-09T19:44:04.948Z,10.18
2023-01-09T19:46:36.376Z,10.18
2023-01-09T19:49:07.035Z,9.82
2023-01-09T19:51:36.521Z,10.02
2023-01-09T19:56:41.603Z,10.85
2023-01-09T19:59:13.205Z,9.93
2023-01-09T20:01:43.484Z,10.00
2023-01-09T20:04:18.342Z,10.35
2023-01-09T20:06:50.811Z,9.63
2023-01-09T20:09:28.314Z,9.80
2023-01-09T20:11:57.675Z,10.35
2023-01-09T20:14:26.947Z,10.50
2023-01-09T20:17:00.865Z,9.95
2023-01-09T20:19:31.110Z,10.45
2023-01-09T20:22:01.937Z,9.65
2023-01-09T20:24:31.337Z,11.50
2023-01-09T20:27:01.661Z,10.95
2023-01-09T20:29:30.840Z,10.02
2023-01-09T20:32:00.747Z,12.10
2023-01-09T20:34:29.944Z,10.95
2023-01-09T20:36:59.050Z,10.40
2023-01-09T20:39:28.180Z,11.38
2023-01-09T20:41:57.467Z,10.23
2023-01-09T20:44:26.722Z,9.65
2023-01-09T20:46:55.910Z,9.85
2023-01-09T20:49:25.149Z,9.57
2023-01-09T20:51:55.052Z,9.32
2023-01-09T20:54:24.605Z,8.80
2023-01-09T20:56:54.604Z,9.93
2023-01-09T20:59:24.491Z,9.57
2023-01-09T21:01:53.978Z,9.48
2023-01-09T21:04:23.229Z,9.85
2023-01-09T21:06:52.434Z,11.15
2023-01-09T21:09:21.817Z,10.30
2023-01-09T21:11:50.934Z,10.30
2023-01-09T21:14:21.055Z,11.07
2023-01-09T21:16:54.981Z,11.68
2023-01-09T21:19:24.996Z,11.70
2023-01-09T21:21:54.134Z,11.05
2023-01-09T21:24:23.301Z,9.25
2023-01-09T21:26:52.405Z,9.80
2023-01-09T21:29:21.536Z,9.45
2023-01-09T21:31:50.674Z,10.15
2023-01-09T21:34:21.758Z,8.77
2023-01-09T21:36:51.269Z,9.73
2023-01-09T21:39:22.283Z,9.52
2023-01-09T21:42:09.528Z,10.05
2023-01-09T21:44:57.124Z,8.05
2023-01-09T21:47:26.345Z,9.30
2023-01-09T21:49:55.448Z,8.45
2023-01-09T21:52:26.623Z,8.90
2023-01-09T21:54:56.812Z,8.45
2023-01-09T21:57:26.362Z,8.23
2023-01-09T21:59:55.615Z,8.05
2023-01-09T22:02:24.860Z,7.55
2023-01-09T22:04:54.540Z,8.35
2023-01-09T22:07:23.726Z,7.43
2023-01-09T22:09:53.530Z,7.60
2023-01-09T22:12:22.770Z,9.55
2023-01-09T22:14:51.900Z,7.90
2023-01-09T22:17:21.128Z,6.82
2023-01-09T22:19:50.440Z,7.28
2023-01-09T22:22:19.674Z,7.38
2023-01-09T22:24:49.102Z,6.40
2023-01-09T22:27:18.421Z,7.82
2023-01-09T22:29:47.850Z,7.57
2023-01-09T22:32:17.150Z,8.20
2023-01-09T22:34:46.457Z,7.38
2023-01-09T22:37:16.501Z,7.90
2023-01-09T22:39:46.303Z,6.53
2023-01-09T22:42:17.726Z,6.65
2023-01-09T22:44:47.043Z,7.55
2023-01-09T22:47:16.225Z,6.88
2023-01-09T22:49:52.707Z,7.65
2023-01-09T22:52:23.061Z,7.18
2023-01-09T22:54:52.271Z,6.30
2023-01-09T22:57:21.524Z,6.13
2023-01-09T22:59:51.080Z,5.93
2023-01-09T23:02:20.784Z,6.93
2023-01-09T23:04:49.974Z,6.90
2023-01-09T23:07:19.495Z,7.30
2023-01-09T23:09:48.755Z,7.57
2023-01-09T23:12:17.979Z,6.70
2023-01-09T23:14:47.225Z,7.43
2023-01-09T23:17:16.439Z,6.70
2023-01-09T23:19:45.665Z,6.32
2023-01-09T23:22:14.933Z,6.53
2023-01-09T23:24:44.045Z,6.10
2023-01-09T23:27:13.328Z,6.47
2023-01-09T23:29:42.596Z,6.80
2023-01-09T23:32:14.933Z,6.32
2023-01-09T23:34:44.096Z,5.97
2023-01-09T23:37:13.364Z,6.65
2023-01-09T23:39:42.621Z,6.60
2023-01-09T23:42:34.046Z,6.10
2023-01-09T23:45:03.426Z,6.43
2023-01-09T23:47:32.541Z,6.60
2023-01-09T23:50:01.721Z,6.47
2023-01-09T23:52:31.056Z,6.95
2023-01-09T23:55:11.945Z,7.95
2023-01-09T23:57:41.321Z,6.57
